Time;durP1;ratioP1;P1;durP2;ratioP2;P2;SDS_P1;SDS_P2;PMS_P1;PMS_P2;Temp;Humidity;BMP_temperature;BMP_pressure;BME280_temperature;BME280_humidity;BME280_pressure;Samples;Min_cycle;Max_cycle;Signal;HPM_P1;HPM_P2
2022/05/05 06:18:41;;;;;;;13.47;6.97;;;15.60;99.90;;;;;;4204282;26;20598;-72
2022/05/05 06:21:08;;;;;;;14.80;7.07;;;15.50;99.90;;;;;;4955039;28;20208;-71
2022/05/05 06:23:37;;;;;;;14.23;7.00;;;15.40;99.90;;;;;;4949566;28;20220;-71
2022/05/05 06:26:05;;;;;;;13.27;6.53;;;15.40;99.90;;;;;;4951343;28;20205;-70
2022/05/05 06:28:33;;;;;;;13.40;7.10;;;15.50;99.90;;;;;;4944398;28;20207;-70
2022/05/05 06:31:00;;;;;;;17.20;7.63;;;15.50;99.90;;;;;;4942478;28;20221;-70
2022/05/05 06:33:27;;;;;;;17.47;7.13;;;15.70;99.90;;;;;;4949605;28;20228;-70
2022/05/05 06:35:55;;;;;;;16.00;7.23;;;15.60;99.90;;;;;;4945434;28;20196;-70
2022/05/05 06:38:22;;;;;;;17.50;7.73;;;15.90;99.90;;;;;;4948836;28;20205;-71
2022/05/05 06:40:49;;;;;;;15.93;6.73;;;16.00;99.90;;;;;;4953158;29;20262;-70
2022/05/05 06:43:16;;;;;;;14.27;7.37;;;16.00;99.90;;;;;;4954011;28;20227;-70
2022/05/05 06:45:43;;;;;;;13.40;6.83;;;16.30;99.90;;;;;;4946917;28;20232;-70
2022/05/05 06:48:10;;;;;;;14.77;7.37;;;16.50;99.90;;;;;;4950466;28;20205;-72
2022/05/05 06:50:36;;;;;;;18.33;6.93;;;16.80;99.90;;;;;;4942276;28;20202;-70
2022/05/05 06:53:04;;;;;;;15.73;7.17;;;17.10;99.90;;;;;;4942701;28;20209;-71
2022/05/05 06:55:31;;;;;;;16.53;7.67;;;17.30;99.90;;;;;;4949624;28;20214;-71
2022/05/05 06:57:58;;;;;;;16.67;7.83;;;17.10;99.90;;;;;;4946294;28;20651;-71
2022/05/05 07:01:51;;;;;;;14.20;7.23;;;17.10;99.90;;;;;;4949294;28;20200;-70
2022/05/05 07:03:12;;;;;;;14.57;6.53;;;17.20;99.90;;;;;;4946755;28;20208;-70
2022/05/05 07:05:39;;;;;;;13.20;6.90;;;17.50;99.90;;;;;;4946744;28;20231;-71
2022/05/05 07:08:07;;;;;;;16.33;8.13;;;17.70;99.90;;;;;;4938073;28;20204;-72
2022/05/05 07:13:18;;;;;;;16.40;7.57;;;18.10;99.90;;;;;;4949243;28;20247;-70
2022/05/05 07:15:45;;;;;;;13.10;6.83;;;18.40;99.90;;;;;;4938731;28;20664;-71
2022/05/05 07:18:12;;;;;;;13.13;6.73;;;18.60;99.90;;;;;;4949974;28;20312;-71
2022/05/05 07:20:39;;;;;;;15.05;7.45;;;18.70;99.90;;;;;;4941815;28;20204;-71
2022/05/05 07:23:11;;;;;;;16.00;6.65;;;19.20;99.90;;;;;;4941902;28;20217;-71
2022/05/05 07:25:38;;;;;;;18.10;7.47;;;19.60;99.90;;;;;;4950581;28;20655;-71
2022/05/05 07:28:06;;;;;;;13.77;7.07;;;19.80;99.90;;;;;;4937617;28;20226;-71
2022/05/05 07:30:33;;;;;;;18.73;7.45;;;19.80;99.90;;;;;;4951288;28;20207;-71
2022/05/05 07:33:00;;;;;;;12.38;7.15;;;19.80;99.90;;;;;;4954111;28;20204;-70
2022/05/05 07:35:27;;;;;;;12.55;6.88;;;20.00;99.90;;;;;;4950463;28;20215;-70
2022/05/05 07:37:53;;;;;;;13.35;6.80;;;19.90;99.90;;;;;;4937905;28;20204;-71
2022/05/05 07:40:21;;;;;;;16.03;8.37;;;19.30;99.90;;;;;;4956339;28;20204;-71
2022/05/05 07:42:48;;;;;;;14.97;7.50;;;18.90;99.90;;;;;;4949429;28;20205;-72
2022/05/05 07:45:15;;;;;;;15.80;7.43;;;18.60;99.90;;;;;;4951021;28;20239;-71
2022/05/05 07:47:42;;;;;;;14.17;7.73;;;18.00;99.90;;;;;;4941554;28;20633;-72
2022/05/05 07:50:10;;;;;;;14.30;7.63;;;17.80;99.90;;;;;;4954135;28;20244;-72
2022/05/05 07:52:37;;;;;;;20.03;8.13;;;17.70;99.90;;;;;;4944954;28;20595;-72
2022/05/05 07:55:04;;;;;;;13.03;7.57;;;17.60;99.90;;;;;;4946197;28;20224;-72
2022/05/05 07:57:32;;;;;;;17.97;7.17;;;17.30;99.90;;;;;;4952900;28;20207;-73
2022/05/05 07:59:59;;;;;;;16.93;7.50;;;17.20;99.90;;;;;;4941634;28;20735;-72
2022/05/05 08:02:26;;;;;;;16.07;8.13;;;17.40;99.90;;;;;;4952000;28;20291;-72
2022/05/05 08:04:54;;;;;;;15.60;7.60;;;17.30;99.90;;;;;;4946714;28;20599;-72
2022/05/05 08:07:21;;;;;;;14.40;7.50;;;17.50;99.90;;;;;;4944548;28;20536;-71
2022/05/05 08:09:48;;;;;;;17.83;8.37;;;17.60;99.90;;;;;;4953945;28;20607;-72
2022/05/05 08:12:16;;;;;;;15.87;7.97;;;17.40;99.90;;;;;;4940655;28;20215;-72
2022/05/05 08:14:44;;;;;;;15.57;7.83;;;17.30;99.90;;;;;;4953519;28;20220;-72
2022/05/05 08:17:11;;;;;;;15.70;7.93;;;17.70;99.90;;;;;;4954142;28;20212;-71
2022/05/05 08:19:38;;;;;;;15.13;7.90;;;17.80;99.90;;;;;;4946402;28;20213;-72
2022/05/05 08:22:05;;;;;;;15.80;7.87;;;18.30;99.90;;;;;;4941305;29;20204;-72
2022/05/05 08:30:06;;;;;;;18.37;7.90;;;18.20;99.90;;;;;;4941275;28;20352;-73
2022/05/05 08:32:32;;;;;;;17.33;7.80;;;18.30;99.90;;;;;;4950698;28;20223;-72
2022/05/05 08:34:59;;;;;;;14.70;7.83;;;18.40;99.90;;;;;;4948137;28;20247;-72
2022/05/05 08:37:26;;;;;;;16.50;8.33;;;18.50;99.90;;;;;;4943175;28;20228;-72
2022/05/05 08:39:53;;;;;;;16.43;7.67;;;18.90;99.90;;;;;;4953714;28;20205;-73
2022/05/05 08:42:20;;;;;;;15.33;7.70;;;18.90;99.90;;;;;;4942840;29;20208;-72
2022/05/05 08:44:46;;;;;;;17.37;7.63;;;18.80;99.90;;;;;;4948351;28;20323;-72
2022/05/05 08:47:17;;;;;;;15.97;8.07;;;18.60;99.90;;;;;;4949985;29;20295;-72
2022/05/05 08:49:44;;;;;;;14.57;6.93;;;18.70;99.90;;;;;;4940095;28;20572;-72
2022/05/05 08:52:18;;;;;;;13.27;7.23;;;18.60;99.90;;;;;;4951068;28;20209;-73
2022/05/05 08:54:46;;;;;;;14.07;7.63;;;18.60;99.90;;;;;;4945404;29;20694;-72
2022/05/05 08:57:13;;;;;;;16.13;7.07;;;18.90;99.90;;;;;;4944903;28;20231;-72
2022/05/05 08:59:40;;;;;;;14.47;7.17;;;19.50;99.90;;;;;;4953302;29;20200;-72
2022/05/05 09:02:07;;;;;;;15.67;7.97;;;19.30;99.90;;;;;;4945529;28;20290;-72
2022/05/05 09:04:35;;;;;;;12.80;6.50;;;19.10;99.90;;;;;;4947928;28;20726;-73
2022/05/05 09:07:03;;;;;;;13.77;7.95;;;19.30;99.90;;;;;;4947016;28;20215;-72
2022/05/05 09:09:31;;;;;;;14.50;7.07;;;19.30;99.90;;;;;;4940392;28;20300;-72
2022/05/05 09:12:06;;;;;;;15.00;7.53;;;19.70;99.90;;;;;;4954539;28;20204;-71
2022/05/05 09:14:36;;;;;;;15.00;6.93;;;19.90;99.90;;;;;;4949343;28;20220;-72
2022/05/05 09:17:05;;;;;;;11.57;7.22;;;20.00;99.90;;;;;;4946957;29;20579;-73
2022/05/05 09:19:38;;;;;;;14.45;7.85;;;20.20;99.90;;;;;;4941578;28;20217;-72
2022/05/05 09:22:06;;;;;;;15.55;7.07;;;19.50;99.90;;;;;;4952475;29;20209;-72
2022/05/05 09:24:35;;;;;;;15.77;7.67;;;19.30;99.90;;;;;;4943935;29;20243;-72
2022/05/05 09:27:19;;;;;;;12.57;6.60;;;19.50;99.90;;;;;;4945535;28;20211;-72
2022/05/05 09:30:00;;;;;;;14.65;7.32;;;19.60;99.90;;;;;;4952261;28;20236;-72
2022/05/05 09:32:28;;;;;;;12.80;7.05;;;19.90;99.90;;;;;;4943065;28;20251;-72
2022/05/05 09:35:02;;;;;;;15.00;7.65;;;20.30;99.90;;;;;;4953068;28;20227;-73
2022/05/05 09:37:29;;;;;;;13.60;7.45;;;20.50;99.90;;;;;;4951189;29;20204;-72
2022/05/05 09:39:57;;;;;;;14.65;7.20;;;20.50;99.90;;;;;;4952931;28;20223;-73
2022/05/05 09:42:37;;;;;;;19.55;7.72;;;20.30;99.90;;;;;;4941291;29;20206;-72
2022/05/05 09:45:12;;;;;;;11.52;6.25;;;20.50;99.90;;;;;;4944698;28;20242;-72
2022/05/05 09:47:39;;;;;;;11.57;6.28;;;20.30;99.90;;;;;;4950045;28;20204;-72
2022/05/05 09:50:08;;;;;;;13.75;7.28;;;20.50;99.90;;;;;;4938864;28;20679;-72
2022/05/05 09:58:08;;;;;;;12.18;6.57;;;21.60;99.90;;;;;;4950309;29;20278;-72
2022/05/05 10:00:45;;;;;;;16.08;7.75;;;22.00;99.90;;;;;;4940491;28;20200;-72
2022/05/05 10:06:03;;;;;;;15.75;7.82;;;21.30;99.90;;;;;;4950698;28;20266;-72
2022/05/05 10:08:46;;;;;;;14.35;7.47;;;21.20;99.90;;;;;;4942285;28;20196;-72
2022/05/05 10:11:15;;;;;;;12.80;7.00;;;21.50;99.90;;;;;;4943318;28;20200;-72
2022/05/05 10:13:42;;;;;;;14.85;8.00;;;21.60;99.90;;;;;;4948748;28;20260;-71
2022/05/05 10:16:09;;;;;;;15.65;7.63;;;21.50;99.90;;;;;;4942110;28;20663;-72
2022/05/05 10:18:38;;;;;;;13.88;7.25;;;21.90;99.90;;;;;;4937703;29;20622;-72
2022/05/05 10:21:08;;;;;;;15.43;7.60;;;22.20;99.30;;;;;;4953214;28;20208;-72
2022/05/05 10:23:47;;;;;;;13.63;7.05;;;22.20;98.80;;;;;;4952862;28;20563;-72
2022/05/05 10:26:14;;;;;;;12.60;6.78;;;22.20;98.50;;;;;;4938303;28;20232;-73
2022/05/05 10:28:44;;;;;;;12.90;7.18;;;22.30;99.20;;;;;;4948168;28;20226;-72
2022/05/05 10:31:12;;;;;;;14.05;7.00;;;21.50;99.80;;;;;;4943711;29;20232;-73
2022/05/05 10:33:59;;;;;;;12.30;6.70;;;21.30;99.90;;;;;;4954680;28;20279;-72
2022/05/05 10:36:28;;;;;;;12.48;7.18;;;21.10;99.90;;;;;;4937575;28;20268;-72
2022/05/05 10:38:56;;;;;;;11.70;6.80;;;20.70;99.90;;;;;;4947845;28;20208;-72
2022/05/05 10:41:36;;;;;;;11.70;6.38;;;20.80;99.90;;;;;;4949250;28;20683;-71
2022/05/05 10:44:23;;;;;;;13.35;6.72;;;20.30;99.90;;;;;;4949649;28;20227;-71
2022/05/05 10:47:01;;;;;;;14.00;6.60;;;19.60;99.90;;;;;;4953571;28;20235;-71
2022/05/05 10:49:48;;;;;;;12.63;6.60;;;19.80;99.90;;;;;;4954744;28;20214;-72
2022/05/05 10:52:32;;;;;;;14.10;6.97;;;19.80;99.90;;;;;;4955002;28;20263;-72
2022/05/05 10:55:23;;;;;;;12.80;6.28;;;20.00;99.90;;;;;;4954420;28;20230;-72
2022/05/05 10:57:50;;;;;;;15.15;7.13;;;20.30;99.90;;;;;;4953938;28;20200;-72
2022/05/05 11:00:19;;;;;;;12.00;6.45;;;20.40;99.90;;;;;;4954470;28;20719;-71
2022/05/05 11:03:15;;;;;;;12.63;6.80;;;20.30;99.90;;;;;;4953428;28;20212;-72
2022/05/05 11:05:44;;;;;;;12.13;6.68;;;20.20;99.90;;;;;;4954374;28;20232;-71
2022/05/05 11:08:35;;;;;;;12.07;6.68;;;19.80;99.90;;;;;;4955139;28;20218;-70
2022/05/05 11:21:31;;;;;;;9.05;5.20;;;19.90;99.90;;;;;;4938963;28;20357;-71
2022/05/05 11:22:29;;;;;;;12.93;6.18;;;19.70;99.90;;;;;;4945393;28;20216;-71
2022/05/05 11:24:58;;;;;;;9.23;5.53;;;19.70;99.90;;;;;;4946207;28;20228;-71
2022/05/05 11:27:26;;;;;;;11.23;5.50;;;19.90;99.90;;;;;;4942107;28;20223;-71
2022/05/05 11:29:53;;;;;;;11.43;5.25;;;20.10;99.90;;;;;;4950854;28;20205;-71
2022/05/05 11:32:28;;;;;;;9.15;5.55;;;19.90;99.90;;;;;;4941483;28;20207;-72
2022/05/05 11:34:55;;;;;;;8.77;5.45;;;19.90;99.90;;;;;;4942558;28;20224;-71
2022/05/05 11:37:22;;;;;;;8.43;5.03;;;20.00;99.80;;;;;;4949186;28;20204;-71
2022/05/05 11:39:49;;;;;;;11.27;5.45;;;19.80;99.90;;;;;;4938562;28;20216;-70
2022/05/05 11:42:18;;;;;;;9.57;4.93;;;19.60;99.90;;;;;;4947556;28;20209;-69
2022/05/05 11:44:46;;;;;;;9.05;5.10;;;19.50;99.90;;;;;;4944049;28;20228;-71
2022/05/05 11:47:14;;;;;;;8.77;4.72;;;19.60;99.70;;;;;;4939899;28;20241;-70
2022/05/05 11:49:43;;;;;;;12.02;5.57;;;19.80;99.60;;;;;;4950342;28;20575;-71
2022/05/05 11:52:11;;;;;;;10.07;4.93;;;20.10;99.90;;;;;;4939248;29;20204;-71
2022/05/05 11:54:38;;;;;;;7.60;4.38;;;20.10;99.90;;;;;;4953981;28;20224;-72
2022/05/05 11:57:06;;;;;;;6.72;3.90;;;20.20;99.60;;;;;;4941418;28;20205;-72
2022/05/05 12:02:20;;;;;;;7.28;3.80;;;20.60;98.90;;;;;;4947249;28;20219;-71
2022/05/05 12:04:50;;;;;;;7.57;4.35;;;20.70;99.20;;;;;;4946355;28;20251;-71
2022/05/05 12:07:19;;;;;;;8.13;4.25;;;20.90;98.40;;;;;;4939745;28;20239;-71
2022/05/05 12:09:46;;;;;;;7.10;4.20;;;21.00;97.40;;;;;;4950248;28;20671;-72
2022/05/05 12:12:16;;;;;;;7.70;4.03;;;21.30;97.80;;;;;;4940209;28;20208;-73
2022/05/05 12:14:47;;;;;;;8.10;4.88;;;21.70;97.80;;;;;;4949298;23;20233;-72
2022/05/05 12:17:18;;;;;;;7.03;4.20;;;21.80;96.90;;;;;;4920545;29;20222;-71
2022/05/05 12:19:48;;;;;;;7.50;4.28;;;21.70;97.60;;;;;;4932677;29;20240;-71
2022/05/05 12:22:15;;;;;;;15.60;5.20;;;21.30;99.00;;;;;;4927562;29;20205;-71
2022/05/05 12:24:46;;;;;;;9.20;4.65;;;20.90;99.90;;;;;;4914702;29;20692;-70
2022/05/05 12:27:13;;;;;;;7.72;3.72;;;20.80;99.90;;;;;;4919025;29;20234;-71
2022/05/05 12:29:42;;;;;;;8.80;4.53;;;20.70;99.90;;;;;;4918031;29;20638;-70
2022/05/05 12:32:12;;;;;;;8.38;4.35;;;20.70;99.90;;;;;;4918822;29;20206;-70
2022/05/05 12:34:40;;;;;;;8.57;4.47;;;20.60;99.90;;;;;;4918079;29;20310;-71
2022/05/05 12:37:13;;;;;;;7.25;4.25;;;20.70;99.90;;;;;;4918648;29;20220;-70
2022/05/05 12:39:51;;;;;;;11.80;4.60;;;20.60;99.90;;;;;;4918617;29;20205;-71
2022/05/05 12:42:18;;;;;;;9.80;4.00;;;20.60;99.90;;;;;;4918662;29;20216;-70
2022/05/05 12:44:49;;;;;;;9.45;4.45;;;20.60;99.90;;;;;;4918231;29;20226;-71
2022/05/05 12:47:22;;;;;;;9.02;4.60;;;20.40;99.90;;;;;;4917743;29;20240;-71
2022/05/05 12:49:49;;;;;;;8.88;4.65;;;20.30;99.90;;;;;;4917302;29;20213;-71
2022/05/05 13:00:43;;;;;;;7.90;4.10;;;19.70;99.90;;;;;;4918671;29;20750;-71
2022/05/05 13:03:12;;;;;;;8.10;4.78;;;19.50;99.90;;;;;;4918459;29;20202;-70
2022/05/05 13:05:39;;;;;;;8.43;4.22;;;19.50;99.90;;;;;;4916989;29;20648;-71
2022/05/05 13:08:06;;;;;;;6.50;4.27;;;19.50;99.90;;;;;;4918040;29;20219;-71
2022/05/05 13:10:33;;;;;;;7.10;4.33;;;19.30;99.90;;;;;;4917257;29;20205;-71
2022/05/05 13:13:00;;;;;;;9.23;4.53;;;19.20;99.90;;;;;;4917190;29;20205;-70
2022/05/05 13:15:26;;;;;;;9.03;4.73;;;19.10;99.90;;;;;;4917225;29;20216;-70
2022/05/05 13:17:53;;;;;;;7.70;4.67;;;19.10;99.90;;;;;;4902324;29;20201;-70
2022/05/05 13:20:22;;;;;;;9.40;4.40;;;19.20;99.90;;;;;;4918583;29;20584;-71
2022/05/05 13:22:48;;;;;;;6.60;4.17;;;19.20;99.90;;;;;;4917661;29;20229;-70
2022/05/05 13:25:15;;;;;;;7.33;3.80;;;19.10;99.90;;;;;;4917152;29;20609;-71
2022/05/05 13:27:42;;;;;;;7.57;3.30;;;19.00;99.90;;;;;;4917531;29;20244;-71
2022/05/05 13:30:10;;;;;;;9.93;3.87;;;19.10;99.90;;;;;;4917529;29;20210;-70
2022/05/05 13:32:37;;;;;;;7.57;3.70;;;19.20;99.90;;;;;;4916936;29;20210;-71
2022/05/05 13:35:04;;;;;;;8.00;3.37;;;19.40;99.90;;;;;;4918038;29;20237;-70
2022/05/05 13:37:32;;;;;;;5.73;2.93;;;19.50;99.90;;;;;;4916857;29;20672;-70
2022/05/05 13:39:59;;;;;;;6.82;3.65;;;19.80;99.90;;;;;;4916151;29;20209;-74
2022/05/05 13:42:26;;;;;;;5.90;3.53;;;20.20;99.90;;;;;;4917171;29;20312;-71
2022/05/05 13:44:53;;;;;;;5.65;3.47;;;20.40;99.90;;;;;;4916641;29;20221;-73
2022/05/05 13:47:20;;;;;;;7.78;3.65;;;20.50;99.90;;;;;;4914811;29;20229;-73
2022/05/05 13:49:46;;;;;;;6.53;4.20;;;20.40;99.90;;;;;;4912590;29;20209;-73
2022/05/05 13:52:13;;;;;;;6.50;4.00;;;20.60;99.60;;;;;;4915232;29;20202;-75
2022/05/05 13:54:43;;;;;;;6.20;4.05;;;20.70;99.60;;;;;;4915119;29;20245;-72
2022/05/05 13:57:10;;;;;;;9.48;3.97;;;20.60;99.90;;;;;;4916309;29;20237;-72
2022/05/05 13:59:37;;;;;;;6.20;3.70;;;20.50;99.90;;;;;;4916065;29;20577;-78
2022/05/05 14:02:05;;;;;;;5.38;3.20;;;20.40;99.90;;;;;;4915852;29;20204;-74
2022/05/05 14:04:32;;;;;;;9.57;4.15;;;20.50;99.30;;;;;;4915949;29;20700;-75
2022/05/05 14:07:00;;;;;;;7.45;3.22;;;20.60;99.70;;;;;;4916146;29;20692;-77
2022/05/05 14:12:15;;;;;;;5.38;3.17;;;20.80;99.00;;;;;;4902381;29;20661;-75
2022/05/05 14:14:43;;;;;;;6.70;3.70;;;21.10;98.40;;;;;;4915637;29;20633;-74
2022/05/05 14:17:10;;;;;;;6.57;3.13;;;21.20;98.20;;;;;;4914676;29;20210;-74
2022/05/05 14:19:38;;;;;;;6.00;3.90;;;21.10;98.70;;;;;;4915739;29;20243;-75
2022/05/05 14:22:05;;;;;;;5.03;3.25;;;21.20;98.10;;;;;;4914873;29;20691;-75
2022/05/05 14:24:31;;;;;;;6.15;3.42;;;21.30;97.80;;;;;;4915648;29;20226;-75
2022/05/05 14:27:01;;;;;;;5.60;3.72;;;21.20;97.90;;;;;;4915884;29;20256;-75
2022/05/05 14:29:29;;;;;;;6.22;3.60;;;21.40;98.00;;;;;;4914815;29;20213;-74
2022/05/05 14:31:56;;;;;;;8.25;4.20;;;21.30;98.50;;;;;;4900043;29;20202;-73
2022/05/05 14:34:23;;;;;;;7.25;4.05;;;21.10;98.60;;;;;;4915267;29;20233;-73
2022/05/05 14:36:50;;;;;;;7.88;3.60;;;20.80;98.80;;;;;;4911384;29;20252;-73
2022/05/05 14:39:17;;;;;;;7.07;4.43;;;20.60;98.90;;;;;;4913914;29;20212;-73
2022/05/05 14:41:44;;;;;;;7.85;3.95;;;20.30;99.10;;;;;;4914914;29;20216;-73
2022/05/05 14:44:11;;;;;;;7.82;4.10;;;20.30;99.60;;;;;;4915355;29;20233;-74
2022/05/05 14:46:40;;;;;;;8.90;4.90;;;20.30;99.90;;;;;;4914081;29;20229;-75
2022/05/05 14:49:07;;;;;;;9.18;4.78;;;20.40;99.90;;;;;;4915140;29;20214;-73
2022/05/05 14:51:34;;;;;;;6.80;3.97;;;20.30;99.90;;;;;;4914240;29;20209;-73
2022/05/05 14:54:01;;;;;;;6.57;4.53;;;20.30;99.90;;;;;;4914910;29;20734;-75
2022/05/05 14:56:27;;;;;;;7.72;4.60;;;20.40;99.90;;;;;;4915753;29;20214;-74
2022/05/05 14:58:54;;;;;;;8.75;4.90;;;20.60;99.90;;;;;;4914960;29;20209;-75
2022/05/05 15:01:21;;;;;;;10.57;5.85;;;20.60;99.90;;;;;;4914136;29;20213;-74
2022/05/05 15:03:50;;;;;;;9.35;5.38;;;20.70;99.90;;;;;;4913796;29;20225;-74
2022/05/05 15:06:18;;;;;;;9.38;5.50;;;20.80;99.90;;;;;;4915141;29;20653;-75
2022/05/05 15:08:45;;;;;;;9.93;5.20;;;20.70;99.90;;;;;;4915681;29;20205;-73
2022/05/05 15:11:12;;;;;;;8.35;5.47;;;20.90;99.90;;;;;;4916228;29;20208;-72
2022/05/05 15:13:38;;;;;;;8.38;4.90;;;21.00;99.90;;;;;;4911412;29;20289;-72
2022/05/05 15:16:06;;;;;;;10.48;5.47;;;21.10;99.90;;;;;;4910201;29;20208;-72
2022/05/05 15:18:32;;;;;;;9.48;4.90;;;21.30;99.90;;;;;;4913483;29;20213;-72
2022/05/05 15:21:02;;;;;;;7.30;4.18;;;21.50;99.90;;;;;;4915851;29;20300;-72
2022/05/05 15:23:30;;;;;;;7.55;4.70;;;21.20;99.90;;;;;;4915080;29;20325;-72
2022/05/05 15:25:57;;;;;;;7.05;4.50;;;21.20;99.90;;;;;;4913945;29;20205;-72
2022/05/05 15:28:24;;;;;;;9.30;5.47;;;21.20;99.90;;;;;;4915285;29;20237;-72
2022/05/05 15:30:50;;;;;;;7.20;4.55;;;21.00;99.90;;;;;;4914542;29;20213;-72
2022/05/05 15:33:17;;;;;;;7.60;4.50;;;20.80;99.90;;;;;;4914372;29;20206;-72
2022/05/05 15:35:44;;;;;;;8.57;4.47;;;20.70;99.90;;;;;;4913981;29;20225;-72
2022/05/05 15:38:13;;;;;;;7.18;4.63;;;20.70;99.90;;;;;;4911198;29;20210;-72
2022/05/05 15:40:40;;;;;;;8.73;4.50;;;20.50;99.90;;;;;;4914884;29;20300;-72
2022/05/05 15:43:07;;;;;;;6.53;3.72;;;20.60;99.90;;;;;;4914653;29;20209;-72
2022/05/05 15:45:33;;;;;;;5.78;3.80;;;20.30;99.90;;;;;;4915972;29;20668;-72
2022/05/05 15:48:03;;;;;;;6.82;4.22;;;20.30;99.90;;;;;;4915122;29;20243;-73
2022/05/05 15:50:30;;;;;;;7.13;3.83;;;20.20;99.90;;;;;;4915988;29;20221;-73
2022/05/05 15:52:57;;;;;;;7.10;4.50;;;20.00;99.90;;;;;;4916503;29;20216;-72
2022/05/05 15:55:25;;;;;;;7.75;4.57;;;19.80;99.90;;;;;;4915583;29;20221;-72
2022/05/05 15:57:52;;;;;;;5.47;3.70;;;19.80;99.90;;;;;;4916130;29;20213;-72
2022/05/05 16:00:20;;;;;;;6.93;4.13;;;19.80;99.90;;;;;;4916382;29;20212;-72
2022/05/05 16:02:48;;;;;;;5.90;3.83;;;19.90;99.90;;;;;;4918000;29;20216;-71
2022/05/05 16:05:17;;;;;;;6.95;3.67;;;20.00;99.90;;;;;;4916071;29;20749;-72
2022/05/05 16:07:45;;;;;;;6.47;2.80;;;20.10;99.90;;;;;;4918201;29;20233;-72
2022/05/05 16:10:12;;;;;;;5.70;4.00;;;19.90;99.90;;;;;;4918570;29;20313;-72
2022/05/05 16:12:41;;;;;;;6.73;3.70;;;19.80;99.90;;;;;;4919268;29;20213;-72
2022/05/05 16:15:08;;;;;;;7.25;3.35;;;19.80;99.90;;;;;;4918977;29;20233;-72
2022/05/05 16:17:36;;;;;;;7.55;3.10;;;19.80;99.90;;;;;;4918804;29;20209;-74
2022/05/05 16:20:04;;;;;;;4.55;2.90;;;19.90;99.90;;;;;;4919729;29;20262;-73
2022/05/05 16:22:31;;;;;;;4.77;3.00;;;19.70;99.90;;;;;;4918496;29;20214;-72
2022/05/05 16:30:29;;;;;;;7.23;3.47;;;19.50;99.90;;;;;;4911814;29;20205;-72
2022/05/05 16:32:56;;;;;;;8.27;3.57;;;19.30;99.90;;;;;;4905442;29;20615;-72
2022/05/05 16:35:24;;;;;;;5.60;3.03;;;19.20;99.90;;;;;;4918411;29;20304;-73
2022/05/05 16:37:54;;;;;;;6.20;3.67;;;19.10;99.90;;;;;;4917416;29;20209;-73
2022/05/05 16:40:24;;;;;;;6.07;3.20;;;18.90;99.90;;;;;;4917655;29;20265;-72
2022/05/05 16:42:53;;;;;;;7.20;3.67;;;18.70;99.90;;;;;;4918180;29;20217;-73
2022/05/05 16:45:21;;;;;;;5.93;3.37;;;18.70;99.90;;;;;;4914407;29;20226;-72
2022/05/05 16:47:48;;;;;;;7.03;3.90;;;18.80;99.90;;;;;;4899710;29;20238;-73
2022/05/05 16:50:17;;;;;;;6.63;3.90;;;18.80;99.90;;;;;;4913498;29;20661;-72
2022/05/05 16:52:43;;;;;;;6.90;3.57;;;18.80;99.90;;;;;;4918329;29;20288;-72
2022/05/05 16:55:11;;;;;;;6.63;3.73;;;18.90;99.90;;;;;;4917791;29;20230;-72
2022/05/05 16:57:39;;;;;;;6.57;4.30;;;18.80;99.90;;;;;;4917755;29;20209;-72
2022/05/05 17:00:09;;;;;;;6.83;3.87;;;18.80;99.90;;;;;;4917396;29;20565;-73
2022/05/05 17:02:38;;;;;;;6.03;3.73;;;18.70;99.90;;;;;;4918789;29;20205;-72
2022/05/05 17:05:05;;;;;;;6.67;3.93;;;18.60;99.90;;;;;;4917630;29;20333;-73
2022/05/05 17:07:32;;;;;;;5.83;3.73;;;18.70;99.90;;;;;;4917847;29;20229;-73
2022/05/05 17:09:59;;;;;;;6.23;3.67;;;18.70;99.90;;;;;;4912564;29;20213;-73
2022/05/05 17:12:26;;;;;;;8.43;4.40;;;18.60;99.90;;;;;;4916498;29;20205;-72
2022/05/05 17:14:53;;;;;;;7.90;4.50;;;18.50;99.90;;;;;;4917637;29;20241;-72
2022/05/05 17:17:21;;;;;;;7.60;3.83;;;18.50;99.90;;;;;;4916984;29;20222;-72
2022/05/05 17:19:49;;;;;;;6.50;3.60;;;18.50;99.90;;;;;;4909917;29;20206;-72
2022/05/05 17:22:16;;;;;;;6.03;3.70;;;18.60;99.90;;;;;;4915353;29;20730;-72
2022/05/05 17:24:43;;;;;;;6.47;4.07;;;18.50;99.90;;;;;;4918207;29;20225;-71
2022/05/05 17:27:10;;;;;;;6.80;4.10;;;18.40;99.90;;;;;;4916979;29;20665;-73
2022/05/05 17:29:37;;;;;;;6.60;3.83;;;18.30;99.90;;;;;;4914561;29;20216;-74
2022/05/05 17:32:04;;;;;;;7.63;4.13;;;18.30;99.90;;;;;;4917790;29;20755;-73
2022/05/05 17:34:32;;;;;;;6.47;4.20;;;18.40;99.90;;;;;;4917196;29;20569;-73
2022/05/05 17:36:59;;;;;;;7.17;4.10;;;18.40;99.90;;;;;;4898139;29;20552;-72
2022/05/05 17:39:26;;;;;;;8.97;4.47;;;18.40;99.90;;;;;;4897202;29;20214;-73
2022/05/05 17:41:53;;;;;;;8.13;4.47;;;18.40;99.90;;;;;;4897889;29;20249;-72
2022/05/05 17:52:34;;;;;;;8.97;4.30;;;18.10;99.90;;;;;;4911051;29;20210;-72
2022/05/05 17:55:01;;;;;;;8.40;4.47;;;18.10;99.90;;;;;;4917433;29;20229;-72
2022/05/05 17:57:28;;;;;;;8.50;3.93;;;18.20;99.90;;;;;;4916273;29;20212;-72
2022/05/05 17:59:55;;;;;;;7.67;4.37;;;18.30;99.90;;;;;;4912767;29;20289;-72
2022/05/05 18:02:22;;;;;;;7.80;4.60;;;18.20;99.90;;;;;;4915399;29;20285;-72
2022/05/05 18:04:50;;;;;;;8.60;4.33;;;18.00;99.90;;;;;;4915780;29;20229;-72
2022/05/05 18:07:17;;;;;;;9.20;4.43;;;18.10;99.90;;;;;;4913944;29;20212;-72
2022/05/05 18:09:44;;;;;;;10.60;4.57;;;17.90;99.90;;;;;;4915703;29;20205;-72
2022/05/05 18:12:11;;;;;;;9.63;4.10;;;17.70;99.90;;;;;;4916522;29;20293;-72
2022/05/05 18:14:38;;;;;;;8.10;4.27;;;17.70;99.90;;;;;;4916312;29;20336;-72
2022/05/05 18:17:06;;;;;;;8.80;4.10;;;17.70;99.90;;;;;;4950929;23;20769;-73
2022/05/05 18:19:33;;;;;;;8.60;3.90;;;17.80;99.90;;;;;;4988093;28;20218;-71
2022/05/05 18:22:03;;;;;;;8.97;4.63;;;18.00;99.90;;;;;;4974790;28;20231;-71
2022/05/05 18:24:31;;;;;;;7.17;4.37;;;17.90;99.90;;;;;;4974396;28;20229;-72
2022/05/05 18:26:57;;;;;;;11.30;4.37;;;17.90;99.90;;;;;;4974282;28;20203;-71
2022/05/05 18:29:24;;;;;;;8.10;4.30;;;17.90;99.90;;;;;;4974125;28;20257;-71
2022/05/05 18:31:52;;;;;;;7.70;4.27;;;18.00;99.90;;;;;;4992626;28;20578;-71
2022/05/05 18:34:19;;;;;;;7.53;4.10;;;18.00;99.90;;;;;;4994462;28;20226;-70
2022/05/05 18:36:46;;;;;;;9.33;3.70;;;18.00;99.90;;;;;;4976662;28;20207;-71
2022/05/05 18:39:14;;;;;;;7.43;3.90;;;17.90;99.90;;;;;;4974397;28;20215;-71
2022/05/05 18:41:41;;;;;;;8.90;4.13;;;17.70;99.90;;;;;;4972809;28;20221;-71
2022/05/05 18:44:08;;;;;;;8.50;4.03;;;17.70;99.90;;;;;;4974282;28;20227;-71
2022/05/05 18:46:34;;;;;;;6.70;3.47;;;17.60;99.90;;;;;;4974761;28;20214;-71
2022/05/05 18:49:01;;;;;;;8.67;4.23;;;17.50;99.90;;;;;;4987963;28;20274;-71
2022/05/05 18:51:28;;;;;;;9.23;3.70;;;17.40;99.90;;;;;;4973933;28;20214;-72
2022/05/05 18:53:55;;;;;;;9.10;3.43;;;17.40;99.90;;;;;;4983095;28;20236;-72
2022/05/05 18:56:23;;;;;;;6.07;3.43;;;17.30;99.90;;;;;;4992849;28;20207;-73
2022/05/05 18:58:50;;;;;;;6.63;3.00;;;17.20;99.90;;;;;;4978274;28;20218;-72
2022/05/05 19:01:19;;;;;;;5.63;2.70;;;17.20;99.90;;;;;;4973812;28;20682;-72
2022/05/05 19:03:46;;;;;;;3.67;2.30;;;17.00;99.90;;;;;;4975467;28;20230;-72
2022/05/05 19:06:13;;;;;;;6.00;2.37;;;16.80;99.90;;;;;;4973188;28;20203;-72
2022/05/05 19:08:40;;;;;;;5.80;2.27;;;16.60;99.90;;;;;;4973611;28;20732;-72
2022/05/05 19:11:07;;;;;;;4.97;2.67;;;16.60;99.90;;;;;;4973728;28;20207;-71
2022/05/05 19:13:35;;;;;;;5.70;2.50;;;16.60;99.90;;;;;;4981945;28;20218;-72
2022/05/05 19:16:02;;;;;;;5.57;2.80;;;16.60;99.90;;;;;;4977213;28;20218;-75
2022/05/05 19:18:29;;;;;;;6.33;2.97;;;16.70;99.90;;;;;;4980571;28;20207;-72
2022/05/05 19:20:57;;;;;;;6.90;3.10;;;16.70;99.90;;;;;;4987607;28;20212;-72
2022/05/05 19:23:24;;;;;;;8.13;2.80;;;16.50;99.90;;;;;;4983208;28;20278;-71
2022/05/05 19:25:51;;;;;;;6.97;3.10;;;16.60;99.90;;;;;;4981612;28;20207;-71
2022/05/05 19:28:18;;;;;;;7.40;2.90;;;16.50;99.90;;;;;;4977352;28;20227;-70
2022/05/05 19:30:46;;;;;;;5.47;3.00;;;16.50;99.90;;;;;;4982178;28;20619;-71
2022/05/05 19:33:14;;;;;;;6.47;3.40;;;16.40;99.90;;;;;;4978871;28;20199;-71
2022/05/05 19:35:41;;;;;;;8.57;3.23;;;16.30;99.90;;;;;;4988273;28;20202;-71
2022/05/05 19:38:08;;;;;;;6.27;2.63;;;16.30;99.90;;;;;;4977627;28;20211;-71
2022/05/05 19:40:35;;;;;;;5.83;2.80;;;16.30;99.90;;;;;;4983821;28;20551;-72
2022/05/05 19:43:03;;;;;;;6.40;3.00;;;16.10;99.90;;;;;;4974643;28;20207;-71
2022/05/05 20:01:43;;;;;;;6.53;2.97;;;15.60;99.90;;;;;;4983552;28;20201;-72
2022/05/05 20:04:10;;;;;;;6.27;2.90;;;15.60;99.90;;;;;;4978881;28;20223;-72
2022/05/05 20:09:21;;;;;;;6.80;3.13;;;15.70;99.90;;;;;;4986481;28;20262;-73
2022/05/05 20:11:48;;;;;;;5.20;2.73;;;15.50;99.90;;;;;;4979406;28;20202;-72
2022/05/05 20:14:16;;;;;;;5.83;2.80;;;15.40;99.90;;;;;;4981238;28;20310;-73
2022/05/05 20:16:43;;;;;;;6.40;2.93;;;15.30;99.90;;;;;;4990910;28;20577;-72
2022/05/05 20:19:09;;;;;;;5.87;3.10;;;15.20;99.90;;;;;;4976997;28;20230;-72